createdAt,value
2019-04-11T00:02:22.652Z,53.94
2019-04-11T00:04:50.375Z,53.99
2019-04-11T00:07:18.251Z,53.95
2019-04-11T00:09:45.236Z,53.88
2019-04-11T00:12:12.429Z,53.87
2019-04-11T00:14:40.122Z,53.91
2019-04-11T00:17:07.820Z,53.92
2019-04-11T00:19:35.757Z,53.98
2019-04-11T00:22:03.517Z,53.89
2019-04-11T00:24:31.365Z,53.95
2019-04-11T00:26:58.371Z,53.92
2019-04-11T00:29:26.072Z,53.87
2019-04-11T00:31:53.108Z,53.91
2019-04-11T00:34:20.643Z,54.01
2019-04-11T00:36:48.490Z,53.92
2019-04-11T00:39:15.688Z,53.91
2019-04-11T00:41:42.942Z,53.98
2019-04-11T00:44:10.415Z,53.97
2019-04-11T00:46:37.384Z,53.89
2019-04-11T00:49:04.303Z,53.91
2019-04-11T00:51:31.898Z,54.11
2019-04-11T00:53:58.893Z,53.95
2019-04-11T00:56:26.234Z,53.99
2019-04-11T00:58:54.005Z,53.93
2019-04-11T01:01:21.861Z,54.00
2019-04-11T01:03:49.559Z,54.12
2019-04-11T01:06:16.516Z,54.01
2019-04-11T01:08:44.013Z,54.08
2019-04-11T01:11:11.975Z,53.98
2019-04-11T01:13:46.653Z,54.04
2019-04-11T01:16:21.186Z,54.00
2019-04-11T01:18:48.181Z,54.09
2019-04-11T01:21:15.795Z,53.92
2019-04-11T01:23:42.942Z,54.09
2019-04-11T01:26:10.768Z,54.01
2019-04-11T01:28:38.596Z,53.97
2019-04-11T01:31:13.531Z,53.98
2019-04-11T01:33:40.620Z,54.01
2019-04-11T01:36:07.593Z,54.04
2019-04-11T01:38:36.688Z,53.96
2019-04-11T01:41:04.510Z,54.11
2019-04-11T01:43:32.433Z,53.97
2019-04-11T01:46:00.070Z,53.97
2019-04-11T01:48:28.721Z,54.02
2019-04-11T01:50:55.629Z,53.97
2019-04-11T01:53:22.667Z,54.01
2019-04-11T01:55:50.468Z,54.02
2019-04-11T01:58:18.377Z,54.04
2019-04-11T02:00:46.964Z,54.00
2019-04-11T02:03:25.425Z,54.15
2019-04-11T02:05:53.587Z,54.08
2019-04-11T02:08:20.567Z,54.19
2019-04-11T02:10:48.672Z,54.05
2019-04-11T02:13:15.844Z,54.11
2019-04-11T02:15:42.769Z,54.03
2019-04-11T02:18:10.893Z,54.14
2019-04-11T02:20:38.982Z,54.07
2019-04-11T02:23:20.133Z,54.13
2019-04-11T02:26:02.802Z,54.24
2019-04-11T02:28:30.920Z,54.00
2019-04-11T02:30:58.038Z,54.17
2019-04-11T02:33:26.816Z,54.12
2019-04-11T02:35:54.241Z,54.13
2019-04-11T02:38:23.297Z,54.07
2019-04-11T02:40:50.173Z,54.05
2019-04-11T02:43:17.607Z,54.03
2019-04-11T02:45:57.014Z,54.12
2019-04-11T02:48:13.821Z,54.10
2019-04-11T02:50:41.562Z,54.04
2019-04-11T02:53:09.617Z,54.07
2019-04-11T02:55:37.836Z,53.97
2019-04-11T02:58:06.194Z,54.03
2019-04-11T03:00:35.468Z,54.12
2019-04-11T03:03:03.549Z,54.19
2019-04-11T03:05:31.088Z,54.03
2019-04-11T03:07:58.427Z,54.00
2019-04-11T03:10:27.116Z,54.07
2019-04-11T03:12:54.575Z,54.23
2019-04-11T03:15:38.793Z,54.13
2019-04-11T03:17:54.917Z,54.12
2019-04-11T03:20:26.377Z,54.28
2019-04-11T03:22:53.048Z,54.11
2019-04-11T03:25:15.923Z,54.14
2019-04-11T03:27:43.320Z,54.07
2019-04-11T03:30:15.131Z,54.34
2019-04-11T03:38:00.071Z,54.15
2019-04-11T03:40:27.177Z,54.17
2019-04-11T03:42:46.346Z,54.12
2019-04-11T03:45:30.105Z,54.22
2019-04-11T03:47:40.877Z,54.20
2019-04-11T03:50:07.192Z,54.15
2019-04-11T03:52:28.421Z,54.27
2019-04-11T03:54:56.202Z,54.38
2019-04-11T03:57:25.456Z,54.23
2019-04-11T03:59:54.322Z,54.20
2019-04-11T04:02:22.413Z,54.26
2019-04-11T04:04:51.224Z,54.22
2019-04-11T04:07:19.179Z,54.14
2019-04-11T04:09:46.330Z,54.29
2019-04-11T04:12:14.127Z,54.40
2019-04-11T04:14:45.277Z,54.42
2019-04-11T04:17:17.058Z,54.23
2019-04-11T04:20:02.176Z,54.14
2019-04-11T04:22:37.717Z,54.49
2019-04-11T04:25:04.832Z,54.46
2019-04-11T04:27:32.707Z,54.39
2019-04-11T04:30:02.963Z,54.37
2019-04-11T04:32:30.439Z,54.25
2019-04-11T04:34:58.517Z,54.38
2019-04-11T04:37:26.863Z,54.21
2019-04-11T04:40:16.255Z,54.51
2019-04-11T04:42:31.106Z,54.42
2019-04-11T04:44:51.139Z,54.23
2019-04-11T04:47:24.808Z,54.51
2019-04-11T04:49:48.160Z,54.48
2019-04-11T04:52:16.316Z,54.13
2019-04-11T04:54:44.382Z,54.52
2019-04-11T04:57:13.066Z,54.39
2019-04-11T04:59:42.357Z,54.30
2019-04-11T05:02:10.524Z,54.43
2019-04-11T05:04:38.336Z,54.28
2019-04-11T05:07:07.249Z,54.34
2019-04-11T05:09:36.059Z,54.26
2019-04-11T05:12:03.436Z,54.23
2019-04-11T05:14:31.670Z,54.41
2019-04-11T05:17:00.073Z,54.26
2019-04-11T05:19:28.504Z,54.34
2019-04-11T05:21:55.526Z,54.18
2019-04-11T05:24:22.884Z,54.13
2019-04-11T05:26:50.359Z,54.36
2019-04-11T05:29:17.465Z,54.54
2019-04-11T05:31:44.896Z,54.32
2019-04-11T05:34:11.900Z,54.43
2019-04-11T05:36:38.815Z,54.26
2019-04-11T05:39:06.647Z,54.28
2019-04-11T05:41:33.633Z,54.45
2019-04-11T05:44:03.464Z,54.22
2019-04-11T05:46:35.215Z,54.56
2019-04-11T05:49:02.627Z,54.62
2019-04-11T05:51:38.983Z,54.49
2019-04-11T05:54:04.397Z,54.33
2019-04-11T05:56:29.995Z,54.57
2019-04-11T05:58:59.778Z,54.49
2019-04-11T06:01:31.502Z,54.38
2019-04-11T06:04:20.975Z,54.60
2019-04-11T06:06:46.954Z,54.50
2019-04-11T06:09:16.279Z,54.40
2019-04-11T06:12:01.665Z,54.63
2019-04-11T06:14:33.303Z,54.64
2019-04-11T06:17:01.955Z,54.49
2019-04-11T06:19:48.013Z,54.60
2019-04-11T06:22:15.083Z,54.46
2019-04-11T06:25:03.566Z,54.38
2019-04-11T06:27:40.205Z,54.35
2019-04-11T06:30:24.231Z,54.34
2019-04-11T06:32:54.222Z,54.58
2019-04-11T06:35:30.237Z,54.62
2019-04-11T06:38:16.356Z,54.55
2019-04-11T06:40:46.078Z,54.47
2019-04-11T06:43:23.694Z,54.39
2019-04-11T06:46:00.945Z,54.51
2019-04-11T06:48:32.245Z,54.48
2019-04-11T06:51:01.748Z,54.31
2019-04-11T06:53:30.445Z,54.27
2019-04-11T06:56:13.916Z,52.03
2019-04-11T06:58:43.446Z,50.56
2019-04-11T07:01:12.217Z,48.80
2019-04-11T07:03:44.878Z,37.24
2019-04-11T07:06:13.576Z,37.89
2019-04-11T07:08:42.658Z,36.79
2019-04-11T07:11:13.892Z,36.39
2019-04-11T07:13:45.585Z,36.00
2019-04-11T07:16:13.341Z,36.10
2019-04-11T07:18:44.567Z,35.99
2019-04-11T07:21:11.869Z,35.87
2019-04-11T07:23:57.562Z,36.01
2019-04-11T07:26:29.536Z,36.17
2019-04-11T07:29:07.352Z,36.11
2019-04-11T07:31:53.104Z,36.21
2019-04-11T07:34:21.764Z,36.25
2019-04-11T07:37:07.024Z,36.23
2019-04-11T07:39:44.592Z,35.72
2019-04-11T07:42:30.995Z,36.35
2019-04-11T07:45:04.160Z,36.96
2019-04-11T07:47:38.795Z,37.47
2019-04-11T07:50:06.172Z,37.56
2019-04-11T07:52:35.875Z,38.41
2019-04-11T07:55:02.860Z,39.36
2019-04-11T07:57:31.417Z,40.11
2019-04-11T08:00:17.168Z,40.65
2019-04-11T08:03:01.978Z,40.92
2019-04-11T08:05:36.784Z,41.24
2019-04-11T08:08:17.644Z,41.52
2019-04-11T08:10:48.872Z,41.84
2019-04-11T08:13:23.605Z,41.99
2019-04-11T08:16:08.759Z,42.35
2019-04-11T08:18:53.913Z,42.49
2019-04-11T08:21:39.152Z,42.80
2019-04-11T08:24:07.830Z,43.25
2019-04-11T08:26:55.412Z,43.36
2019-04-11T08:29:24.291Z,43.61
2019-04-11T08:32:09.676Z,43.83
2019-04-11T08:34:38.220Z,44.05
2019-04-11T08:37:23.354Z,44.24
2019-04-11T08:39:50.721Z,44.35
2019-04-11T08:42:37.415Z,44.57
2019-04-11T08:45:05.994Z,44.56
2019-04-11T08:47:43.823Z,44.73
2019-04-11T08:50:03.942Z,44.82
2019-04-11T08:52:32.603Z,45.04
2019-04-11T08:55:02.149Z,45.20
2019-04-11T08:57:33.993Z,45.32
2019-04-11T09:00:04.158Z,45.51
2019-04-11T09:02:33.262Z,45.57
2019-04-11T09:05:20.334Z,45.71
2019-04-11T09:07:48.512Z,45.79
2019-04-11T09:10:33.810Z,45.86
2019-04-11T09:13:05.368Z,45.91
2019-04-11T09:15:43.264Z,45.99
2019-04-11T09:18:13.332Z,46.04
2019-04-11T09:20:40.472Z,46.18
2019-04-11T09:23:07.376Z,46.18
2019-04-11T09:25:41.620Z,46.24
2019-04-11T09:28:11.269Z,46.43
2019-04-11T09:30:56.973Z,46.46
2019-04-11T09:33:28.881Z,46.74
2019-04-11T09:36:15.788Z,46.98
2019-04-11T09:38:44.381Z,47.01
2019-04-11T09:41:24.859Z,47.20
2019-04-11T09:43:53.670Z,47.35
2019-04-11T09:46:26.118Z,47.46
2019-04-11T09:48:58.053Z,47.57
2019-04-11T09:51:44.243Z,47.52
2019-04-11T09:54:22.036Z,47.58
2019-04-11T09:57:05.883Z,47.62
2019-04-11T09:59:34.441Z,47.66
2019-04-11T10:02:03.022Z,47.71
2019-04-11T10:04:31.940Z,47.72
2019-04-11T10:07:03.467Z,47.78
2019-04-11T10:09:32.370Z,47.79
2019-04-11T10:12:17.970Z,47.78
2019-04-11T10:14:46.602Z,47.82
2019-04-11T10:17:30.175Z,47.83
2019-04-11T10:19:57.093Z,47.86
2019-04-11T10:22:26.955Z,47.79
2019-04-11T10:25:12.793Z,47.74
2019-04-11T10:27:47.467Z,47.74
2019-04-11T10:30:33.539Z,47.80
2019-04-11T10:33:20.547Z,47.78
2019-04-11T10:36:05.015Z,47.75
2019-04-11T10:38:32.839Z,47.78
2019-04-11T10:41:01.373Z,47.78
2019-04-11T10:43:29.950Z,47.82
2019-04-11T10:46:07.261Z,47.86
2019-04-11T10:48:46.714Z,47.91
2019-04-11T10:51:31.760Z,47.94
2019-04-11T10:53:59.675Z,47.99
2019-04-11T10:56:28.454Z,48.04
2019-04-11T10:58:55.520Z,48.09
2019-04-11T11:01:40.328Z,48.08
2019-04-11T11:04:09.534Z,48.13
2019-04-11T11:06:36.521Z,48.14
2019-04-11T11:09:08.158Z,48.18
2019-04-11T11:11:37.202Z,48.21
2019-04-11T11:14:12.363Z,48.26
2019-04-11T11:16:44.391Z,48.26
2019-04-11T11:19:33.559Z,48.29
2019-04-11T11:21:42.984Z,48.33
2019-04-11T11:24:21.768Z,48.46
2019-04-11T11:26:51.997Z,48.51
2019-04-11T11:29:31.934Z,48.59
2019-04-11T11:32:07.145Z,48.68
2019-04-11T11:34:36.754Z,48.71
2019-04-11T11:37:20.808Z,48.79
2019-04-11T11:39:52.560Z,48.72
2019-04-11T11:42:34.453Z,48.84
2019-04-11T11:45:04.132Z,48.79
2019-04-11T11:47:49.035Z,48.87
2019-04-11T11:50:23.911Z,48.88
2019-04-11T11:52:53.207Z,48.96
2019-04-11T11:55:21.983Z,48.99
2019-04-11T11:57:53.599Z,49.07
2019-04-11T12:00:23.486Z,49.11
2019-04-11T12:03:01.901Z,49.13
2019-04-11T12:05:29.509Z,49.14
2019-04-11T12:08:01.347Z,49.23
2019-04-11T12:10:34.070Z,49.18
2019-04-11T12:13:13.340Z,49.19
2019-04-11T12:15:45.627Z,49.26
2019-04-11T12:18:24.554Z,49.25
2019-04-11T12:20:58.769Z,49.28
2019-04-11T12:23:52.857Z,49.26
2019-04-11T12:26:13.605Z,49.42
2019-04-11T12:28:41.744Z,49.41
2019-04-11T12:31:10.301Z,49.49
2019-04-11T12:33:57.586Z,49.43
2019-04-11T12:36:26.506Z,49.58
2019-04-11T12:39:04.502Z,49.59
2019-04-11T12:41:49.406Z,49.58
2019-04-11T12:44:30.394Z,49.64
2019-04-11T12:47:15.794Z,49.70
2019-04-11T12:49:52.989Z,49.73
2019-04-11T12:52:37.205Z,49.72
2019-04-11T12:55:05.824Z,49.80
2019-04-11T12:57:50.610Z,49.81
2019-04-11T13:00:19.334Z,49.86
2019-04-11T13:03:04.198Z,49.96
2019-04-11T13:05:32.866Z,49.97
2019-04-11T13:08:18.425Z,50.02
2019-04-11T13:10:47.089Z,49.98
2019-04-11T13:13:24.583Z,50.05
2019-04-11T13:15:54.694Z,50.05
2019-04-11T13:18:29.203Z,50.11
2019-04-11T13:21:14.210Z,50.02
2019-04-11T13:23:48.747Z,50.09
2019-04-11T13:26:20.288Z,50.15
2019-04-11T13:28:48.879Z,50.14
2019-04-11T13:31:33.711Z,50.15
2019-04-11T13:34:05.330Z,50.17
2019-04-11T13:36:42.723Z,50.25
2019-04-11T13:39:09.943Z,50.22
2019-04-11T13:41:38.567Z,50.23
2019-04-11T13:44:09.690Z,50.32
2019-04-11T13:46:37.408Z,50.34
2019-04-11T13:49:08.688Z,50.34
2019-04-11T13:51:53.792Z,50.42
2019-04-11T13:54:22.472Z,50.34
2019-04-11T13:56:51.128Z,50.35
2019-04-11T13:59:34.747Z,50.44
2019-04-11T14:02:06.173Z,50.49
2019-04-11T14:04:38.372Z,50.54
2019-04-11T14:07:03.480Z,50.53
2019-04-11T14:09:32.123Z,50.54
2019-04-11T14:11:59.035Z,50.52
2019-04-11T14:14:27.059Z,50.47
2019-04-11T14:16:55.610Z,50.62
2019-04-11T14:19:41.661Z,50.61
2019-04-11T14:22:13.577Z,50.70
2019-04-11T14:24:41.800Z,50.71
2019-04-11T14:27:10.926Z,50.72
2019-04-11T14:29:42.509Z,50.79
2019-04-11T14:32:11.074Z,50.66
2019-04-11T14:34:48.873Z,50.75
2019-04-11T14:37:38.502Z,50.74
2019-04-11T14:40:10.614Z,50.88
2019-04-11T14:42:46.022Z,50.75
2019-04-11T14:45:29.955Z,50.78
2019-04-11T14:48:14.856Z,50.54
2019-04-11T14:50:58.632Z,50.79
2019-04-11T14:53:27.179Z,51.19
2019-04-11T14:55:55.759Z,50.77
2019-04-11T14:58:42.457Z,50.94
2019-04-11T15:01:11.099Z,51.05
2019-04-11T15:03:43.280Z,50.65
2019-04-11T15:06:09.881Z,51.16
2019-04-11T15:08:41.663Z,50.76
2019-04-11T15:11:10.240Z,50.93
2019-04-11T15:13:38.020Z,51.02
2019-04-11T15:16:24.996Z,51.04
2019-04-11T15:18:53.545Z,51.12
2019-04-11T15:21:38.584Z,51.08
2019-04-11T15:24:07.486Z,51.12
2019-04-11T15:26:54.152Z,51.08
2019-04-11T15:29:22.705Z,51.23
2019-04-11T15:32:09.617Z,51.21
2019-04-11T15:34:38.165Z,51.27
2019-04-11T15:37:22.072Z,51.33
2019-04-11T15:40:05.717Z,51.19
2019-04-11T15:42:43.006Z,51.12
2019-04-11T15:45:13.311Z,51.23
2019-04-11T15:47:54.087Z,51.30
2019-04-11T15:50:38.952Z,51.13
2019-04-11T15:53:06.812Z,51.12
2019-04-11T15:55:52.360Z,51.08
2019-04-11T15:58:20.908Z,51.18
2019-04-11T16:00:49.464Z,51.14
2019-04-11T16:03:16.373Z,50.79
2019-04-11T16:05:50.676Z,50.96
2019-04-11T16:08:19.248Z,50.95
2019-04-11T16:10:53.560Z,50.94
2019-04-11T16:13:38.521Z,50.85
2019-04-11T16:16:11.771Z,50.83
2019-04-11T16:18:52.204Z,50.81
2019-04-11T16:21:26.247Z,50.78
2019-04-11T16:24:11.192Z,50.71
2019-04-11T16:26:48.944Z,50.77
2019-04-11T16:29:26.447Z,50.73
2019-04-11T16:31:55.017Z,50.72
2019-04-11T16:34:26.293Z,50.71
2019-04-11T16:36:53.403Z,50.69
2019-04-11T16:39:34.190Z,50.65
2019-04-11T16:42:05.812Z,50.62
2019-04-11T16:44:37.426Z,50.56
2019-04-11T16:47:12.150Z,50.53
2019-04-11T16:49:42.136Z,50.56
2019-04-11T16:52:08.579Z,50.59
2019-04-11T16:54:39.674Z,50.58
2019-04-11T16:57:04.268Z,50.62
2019-04-11T16:59:31.290Z,50.61
2019-04-11T17:01:58.288Z,50.61
2019-04-11T17:04:25.999Z,50.57
2019-04-11T17:07:11.744Z,50.62
2019-04-11T17:09:46.210Z,50.49
2019-04-11T17:12:13.116Z,50.51
2019-04-11T17:14:40.024Z,50.39
2019-04-11T17:17:14.967Z,50.34
2019-04-11T17:19:36.136Z,50.48
2019-04-11T17:22:03.728Z,50.80
2019-04-11T17:24:30.636Z,50.55
2019-04-11T17:26:57.548Z,50.80
2019-04-11T17:29:25.010Z,50.75
2019-04-11T17:31:55.606Z,50.79
2019-04-11T17:34:21.053Z,50.88
2019-04-11T17:36:47.961Z,50.81
2019-04-11T17:39:14.868Z,50.90
2019-04-11T17:41:42.615Z,50.83
2019-04-11T17:44:10.536Z,50.79
2019-04-11T17:46:37.460Z,50.84
2019-04-11T17:49:04.364Z,50.85
2019-04-11T17:51:34.422Z,50.85
2019-04-11T17:54:01.416Z,50.96
2019-04-11T17:56:28.380Z,50.86
2019-04-11T17:58:57.684Z,50.90
2019-04-11T18:01:23.932Z,50.94
2019-04-11T18:03:50.864Z,50.87
2019-04-11T18:06:17.818Z,51.01
2019-04-11T18:08:46.605Z,50.92
2019-04-11T18:11:13.315Z,50.92
2019-04-11T18:13:40.228Z,50.92
2019-04-11T18:16:07.136Z,50.88
2019-04-11T18:18:35.208Z,50.91
2019-04-11T18:21:07.087Z,50.91
2019-04-11T18:23:31.398Z,50.95
2019-04-11T18:25:58.310Z,51.41
2019-04-11T18:28:25.446Z,51.68
2019-04-11T18:30:54.111Z,51.53
2019-04-11T18:33:20.857Z,52.11
2019-04-11T18:35:47.825Z,52.23
2019-04-11T18:38:14.739Z,53.14
2019-04-11T18:40:41.636Z,53.91
2019-04-11T18:43:08.548Z,53.81
2019-04-11T18:45:35.451Z,53.91
2019-04-11T18:48:02.361Z,53.88
2019-04-11T18:50:29.276Z,53.39
2019-04-11T18:52:59.175Z,52.84
2019-04-11T18:55:24.761Z,53.58
2019-04-11T18:57:51.671Z,53.25
2019-04-11T19:00:20.144Z,53.88
2019-04-11T19:02:47.048Z,53.51
2019-04-11T19:05:13.969Z,53.73
2019-04-11T19:07:42.781Z,54.24
2019-04-11T19:10:09.440Z,54.07
2019-04-11T19:12:36.372Z,54.53
2019-04-11T19:15:03.312Z,54.61
2019-04-11T19:17:30.588Z,54.73
2019-04-11T19:19:57.539Z,55.04
2019-04-11T19:22:37.251Z,55.70
2019-04-11T19:24:53.000Z,55.34
2019-04-11T19:27:20.555Z,55.87
2019-04-11T19:29:48.552Z,56.09
2019-04-11T19:32:15.556Z,55.88
2019-04-11T19:34:42.464Z,54.96
2019-04-11T19:37:11.677Z,54.51
2019-04-11T19:39:37.928Z,53.82
2019-04-11T19:42:08.743Z,53.60
2019-04-11T19:44:35.157Z,53.45
2019-04-11T19:47:01.954Z,54.09
2019-04-11T19:49:29.578Z,54.17
2019-04-11T19:52:00.636Z,54.01
2019-04-11T19:54:25.144Z,54.61
2019-04-11T19:56:57.084Z,54.65
2019-04-11T19:59:24.024Z,54.42
2019-04-11T20:01:53.205Z,54.53
2019-04-11T20:04:21.675Z,54.68
2019-04-11T20:06:48.221Z,54.11
2019-04-11T20:09:15.182Z,54.14
2019-04-11T20:11:44.719Z,53.89
2019-04-11T20:14:10.658Z,54.20
2019-04-11T20:16:41.988Z,54.38
2019-04-11T20:19:06.221Z,54.33
2019-04-11T20:21:33.160Z,53.98
2019-04-11T20:24:00.438Z,54.31
2019-04-11T20:26:27.357Z,54.19
2019-04-11T20:28:54.292Z,54.23
2019-04-11T20:31:21.214Z,54.11
2019-04-11T20:33:48.149Z,54.40
2019-04-11T20:36:15.077Z,54.33
2019-04-11T20:38:44.735Z,53.93
2019-04-11T20:41:10.646Z,54.16
2019-04-11T20:43:37.559Z,54.12
2019-04-11T20:46:04.480Z,54.44
2019-04-11T20:48:34.860Z,54.11
2019-04-11T20:50:59.983Z,54.21
2019-04-11T20:53:26.936Z,53.97
2019-04-11T20:55:53.845Z,54.09
2019-04-11T20:58:27.217Z,54.29
2019-04-11T21:00:53.238Z,54.46
2019-04-11T21:03:17.932Z,54.45
2019-04-11T21:05:44.844Z,54.45
2019-04-11T21:08:11.801Z,54.47
2019-04-11T21:10:38.732Z,54.41
2019-04-11T21:13:07.132Z,54.36
2019-04-11T21:15:34.240Z,54.08
2019-04-11T21:18:01.157Z,54.46
2019-04-11T21:20:28.090Z,54.38
2019-04-11T21:22:54.985Z,54.56
2019-04-11T21:25:21.968Z,54.48
2019-04-11T21:27:48.883Z,54.43
2019-04-11T21:30:15.802Z,54.58
2019-04-11T21:32:42.732Z,54.58
2019-04-11T21:35:09.669Z,54.49
2019-04-11T21:37:36.887Z,54.52
2019-04-11T21:40:03.926Z,54.41
2019-04-11T21:42:30.878Z,54.50
2019-04-11T21:44:57.786Z,54.42
2019-04-11T21:47:24.692Z,54.40
2019-04-11T21:49:51.628Z,54.30
2019-04-11T21:52:18.553Z,54.48
2019-04-11T21:54:45.948Z,54.48
2019-04-11T21:57:12.878Z,54.40
2019-04-11T21:59:39.788Z,54.34
2019-04-11T22:02:06.724Z,54.37
2019-04-11T22:04:33.645Z,54.27
2019-04-11T22:07:00.878Z,54.46
2019-04-11T22:09:28.413Z,54.23
2019-04-11T22:11:55.314Z,54.18
2019-04-11T22:14:22.262Z,54.24
2019-04-11T22:16:49.178Z,54.42
2019-04-11T22:19:16.167Z,53.98
2019-04-11T22:21:45.298Z,54.15
2019-04-11T22:24:11.662Z,54.32
2019-04-11T22:26:38.583Z,54.20
2019-04-11T22:29:05.496Z,54.45
2019-04-11T22:31:32.413Z,54.40
2019-04-11T22:34:00.986Z,54.39
2019-04-11T22:36:30.108Z,54.43
2019-04-11T22:38:58.730Z,54.33
2019-04-11T22:41:25.007Z,54.21
2019-04-11T22:43:51.972Z,54.34
2019-04-11T22:46:20.952Z,54.35
2019-04-11T22:48:47.484Z,54.24
2019-04-11T22:51:14.391Z,54.14
2019-04-11T22:53:43.206Z,54.26
2019-04-11T22:56:11.710Z,54.25
2019-04-11T22:58:38.488Z,54.12
2019-04-11T23:01:05.399Z,54.25
2019-04-11T23:03:46.815Z,54.12
2019-04-11T23:06:11.801Z,54.24
2019-04-11T23:08:38.757Z,54.03
2019-04-11T23:11:05.670Z,54.22
2019-04-11T23:13:32.580Z,54.26
2019-04-11T23:15:59.507Z,54.15
2019-04-11T23:18:26.449Z,54.12
2019-04-11T23:20:55.894Z,54.25
2019-04-11T23:23:22.868Z,54.26
2019-04-11T23:25:49.812Z,54.22
2019-04-11T23:28:16.725Z,54.21
2019-04-11T23:30:43.659Z,54.25
2019-04-11T23:33:10.561Z,54.03
2019-04-11T23:35:37.491Z,54.16
2019-04-11T23:38:04.396Z,54.20
2019-04-11T23:40:31.309Z,54.14
2019-04-11T23:42:58.344Z,54.10
2019-04-11T23:45:26.913Z,54.11
2019-04-11T23:47:54.409Z,54.01
2019-04-11T23:50:24.907Z,54.01
2019-04-11T23:52:49.996Z,53.92
2019-04-11T23:55:16.938Z,53.96
2019-04-11T23:57:43.840Z,53.96
